Time;durP1;ratioP1;P1;durP2;ratioP2;P2;SDS_P1;SDS_P2;PMS_P1;PMS_P2;Temp;Humidity;BMP_temperature;BMP_pressure;BME280_temperature;BME280_humidity;BME280_pressure;Samples;Min_cycle;Max_cycle;Signal;HPM_P1;HPM_P2
2023/07/13 00:02:23;;;;;;;0.77;0.77;;;18.20;99.90;;;;;;5014401;28;20045;-76
2023/07/13 00:04:50;;;;;;;1.40;0.55;;;18.10;99.90;;;;;;5019790;28;20134;-76
2023/07/13 00:07:19;;;;;;;3.60;1.58;;;18.10;99.90;;;;;;5026516;28;20135;-75
2023/07/13 00:09:48;;;;;;;1.35;0.93;;;18.10;99.90;;;;;;5010293;28;20099;-76
2023/07/13 00:12:36;;;;;;;2.13;0.77;;;18.10;99.90;;;;;;5025727;28;20565;-76
2023/07/13 00:15:07;;;;;;;3.00;0.73;;;18.10;99.90;;;;;;5025193;28;20041;-76
2023/07/13 00:17:32;;;;;;;6.20;0.90;;;18.00;99.90;;;;;;5026577;28;20141;-76
2023/07/13 00:19:58;;;;;;;4.80;0.88;;;18.00;99.90;;;;;;5045259;28;20262;-75
2023/07/13 00:22:25;;;;;;;2.60;0.77;;;18.00;99.90;;;;;;5043795;28;20037;-76
2023/07/13 00:24:57;;;;;;;0.82;0.52;;;18.00;99.90;;;;;;5044193;28;20044;-76
2023/07/13 00:27:23;;;;;;;0.63;0.50;;;18.00;99.90;;;;;;5026049;28;20040;-76
2023/07/13 00:29:49;;;;;;;0.80;0.73;;;18.00;99.90;;;;;;5025554;28;20049;-75
2023/07/13 00:32:15;;;;;;;0.52;0.50;;;17.90;99.90;;;;;;5044177;28;20029;-76
2023/07/13 00:34:41;;;;;;;1.52;0.45;;;17.90;99.90;;;;;;5026576;28;20499;-75
2023/07/13 00:37:07;;;;;;;1.08;0.80;;;17.90;99.90;;;;;;5043009;28;20041;-75
2023/07/13 00:39:34;;;;;;;2.88;0.70;;;17.80;99.90;;;;;;5026248;28;20037;-76
2023/07/13 00:42:00;;;;;;;1.08;0.57;;;17.80;99.90;;;;;;5044160;28;20073;-76
2023/07/13 00:44:26;;;;;;;2.38;0.55;;;17.80;99.90;;;;;;5025141;28;20044;-76
2023/07/13 00:46:52;;;;;;;2.35;0.50;;;17.80;99.90;;;;;;5025814;28;20044;-76
2023/07/13 00:49:25;;;;;;;1.13;0.65;;;17.80;99.90;;;;;;5026003;28;20043;-76
2023/07/13 00:51:55;;;;;;;1.27;0.40;;;17.80;99.90;;;;;;5043546;28;20044;-75
2023/07/13 00:54:29;;;;;;;2.15;0.40;;;17.80;99.90;;;;;;5026136;28;20135;-76
2023/07/13 00:57:00;;;;;;;0.73;0.30;;;17.80;99.90;;;;;;5025644;28;20041;-75
2023/07/13 00:59:26;;;;;;;1.40;0.65;;;17.70;99.90;;;;;;5025221;28;20128;-75
2023/07/13 01:01:53;;;;;;;1.05;0.65;;;17.70;99.90;;;;;;5037701;28;20045;-75
2023/07/13 01:04:19;;;;;;;1.40;0.32;;;17.70;99.90;;;;;;5034325;28;20483;-76
2023/07/13 01:06:46;;;;;;;1.65;0.52;;;17.70;99.90;;;;;;5042929;28;20063;-76
2023/07/13 01:09:15;;;;;;;2.95;0.40;;;17.70;99.90;;;;;;5117408;22;20060;-76
2023/07/13 01:11:41;;;;;;;0.30;0.30;;;17.70;99.90;;;;;;5045833;28;20048;-76
2023/07/13 01:14:08;;;;;;;2.70;0.50;;;17.70;99.90;;;;;;5062521;28;20041;-76
2023/07/13 01:16:35;;;;;;;0.95;0.47;;;17.60;99.90;;;;;;5063565;28;20040;-75
2023/07/13 01:19:06;;;;;;;0.43;0.43;;;17.60;99.90;;;;;;5063177;28;20044;-76
2023/07/13 01:21:33;;;;;;;0.50;0.50;;;17.60;99.90;;;;;;5063186;28;20056;-76
2023/07/13 01:23:59;;;;;;;0.77;0.40;;;17.60;99.90;;;;;;5064054;28;20123;-75
2023/07/13 01:26:24;;;;;;;1.00;0.70;;;17.60;99.90;;;;;;5045957;28;20171;-75
2023/07/13 01:28:50;;;;;;;0.20;0.20;;;17.50;99.90;;;;;;5062341;28;20056;-75
2023/07/13 01:31:16;;;;;;;1.88;0.45;;;17.50;99.90;;;;;;5063377;28;20032;-74
2023/07/13 01:33:42;;;;;;;1.00;0.75;;;17.50;99.90;;;;;;5056157;28;20040;-75
2023/07/13 01:36:08;;;;;;;1.15;0.93;;;17.50;99.90;;;;;;5062786;28;20479;-75
2023/07/13 01:38:35;;;;;;;0.77;0.75;;;17.50;99.90;;;;;;5063349;28;20078;-75
2023/07/13 01:41:01;;;;;;;1.42;0.50;;;17.50;99.90;;;;;;5045314;28;20041;-76
2023/07/13 01:43:27;;;;;;;1.23;0.40;;;17.50;99.90;;;;;;5063243;28;20128;-75
2023/07/13 01:45:52;;;;;;;2.08;0.50;;;17.50;99.90;;;;;;5063325;28;20116;-75
2023/07/13 01:48:18;;;;;;;1.83;0.57;;;17.40;99.90;;;;;;5063100;28;20048;-75
2023/07/13 01:50:44;;;;;;;4.10;0.77;;;17.40;99.90;;;;;;5063776;28;20115;-75
2023/07/13 01:53:10;;;;;;;0.75;0.60;;;17.40;99.90;;;;;;5062434;28;20174;-75
2023/07/13 01:55:37;;;;;;;3.22;0.75;;;17.40;99.90;;;;;;5063336;28;20501;-75
2023/07/13 01:58:03;;;;;;;2.15;0.60;;;17.40;99.90;;;;;;5062410;28;20097;-75
2023/07/13 02:00:29;;;;;;;1.92;0.73;;;17.40;99.90;;;;;;5063915;28;20048;-75
2023/07/13 02:02:54;;;;;;;1.65;0.50;;;17.30;99.90;;;;;;5078209;28;20051;-75
2023/07/13 02:05:20;;;;;;;2.13;0.70;;;17.40;99.90;;;;;;5083486;28;20044;-75
2023/07/13 02:07:46;;;;;;;0.60;0.60;;;17.40;99.90;;;;;;5065377;28;20523;-75
2023/07/13 02:10:12;;;;;;;3.95;0.90;;;17.40;99.90;;;;;;5056069;28;20296;-75
2023/07/13 02:12:38;;;;;;;2.72;1.38;;;17.30;99.90;;;;;;5066951;28;20088;-75
2023/07/13 02:15:04;;;;;;;1.10;0.60;;;17.30;99.90;;;;;;5066322;28;20054;-75
2023/07/13 02:17:30;;;;;;;4.03;0.73;;;17.40;99.90;;;;;;5066937;28;20044;-75
2023/07/13 02:19:56;;;;;;;1.95;0.63;;;17.30;99.90;;;;;;5067319;28;20699;-75
2023/07/13 02:22:22;;;;;;;2.20;0.80;;;17.30;99.90;;;;;;5066470;28;20037;-75
2023/07/13 02:24:48;;;;;;;5.72;1.20;;;17.30;99.90;;;;;;5066586;28;20087;-75
2023/07/13 02:27:14;;;;;;;2.90;0.95;;;17.30;99.90;;;;;;5048382;28;20044;-75
2023/07/13 02:29:39;;;;;;;2.05;1.00;;;17.30;99.90;;;;;;5065917;28;20535;-75
2023/07/13 02:32:06;;;;;;;2.15;1.00;;;17.30;99.90;;;;;;5066184;28;20102;-75
2023/07/13 02:34:32;;;;;;;3.28;0.77;;;17.30;99.90;;;;;;5048482;28;20083;-75
2023/07/13 02:36:57;;;;;;;2.40;0.80;;;17.30;99.90;;;;;;5066672;28;20079;-75
2023/07/13 02:39:23;;;;;;;2.05;0.88;;;17.20;99.90;;;;;;5066135;28;20074;-75
2023/07/13 02:41:49;;;;;;;6.32;0.93;;;17.30;99.90;;;;;;5048702;28;20045;-75
2023/07/13 02:44:15;;;;;;;1.92;1.08;;;17.20;99.90;;;;;;5047189;28;20697;-75
2023/07/13 02:46:40;;;;;;;1.88;1.77;;;17.20;99.90;;;;;;5066348;28;20044;-75
2023/07/13 02:49:06;;;;;;;4.80;1.23;;;17.20;99.90;;;;;;5066085;28;20037;-75
2023/07/13 02:51:33;;;;;;;5.15;1.20;;;17.10;99.90;;;;;;5066353;28;20040;-76
2023/07/13 02:54:00;;;;;;;6.43;1.10;;;17.10;99.90;;;;;;5066560;28;20055;-75
2023/07/13 02:56:29;;;;;;;5.20;1.65;;;17.10;99.90;;;;;;5066803;28;20040;-75
2023/07/13 02:58:55;;;;;;;2.78;1.45;;;17.10;99.90;;;;;;5047661;28;20044;-75
2023/07/13 03:01:21;;;;;;;3.78;1.83;;;17.10;99.90;;;;;;5049611;28;20119;-75
2023/07/13 03:03:47;;;;;;;3.72;1.40;;;17.10;99.90;;;;;;5068032;28;20067;-75
2023/07/13 03:06:14;;;;;;;4.43;1.23;;;17.00;99.90;;;;;;5086651;28;20398;-75
2023/07/13 03:08:40;;;;;;;6.40;2.00;;;17.00;99.90;;;;;;5084032;28;20040;-76
2023/07/13 03:11:17;;;;;;;4.47;1.10;;;17.00;99.90;;;;;;5047285;28;20049;-76
2023/07/13 03:13:43;;;;;;;2.50;1.80;;;17.00;99.90;;;;;;5030502;28;20448;-76
2023/07/13 03:16:10;;;;;;;4.40;1.48;;;16.90;99.90;;;;;;5065405;28;20044;-76
2023/07/13 03:18:36;;;;;;;5.30;1.20;;;16.90;99.90;;;;;;5065822;28;20115;-76
2023/07/13 03:21:03;;;;;;;4.70;1.30;;;16.90;99.90;;;;;;5048013;28;20436;-76
2023/07/13 03:23:29;;;;;;;4.15;1.40;;;16.90;99.90;;;;;;5048084;28;20090;-75
2023/07/13 03:26:05;;;;;;;4.60;1.20;;;16.90;99.90;;;;;;5065382;28;20050;-75
2023/07/13 03:28:31;;;;;;;2.47;1.35;;;16.90;99.90;;;;;;5064620;28;20074;-76
2023/07/13 03:31:05;;;;;;;6.38;1.90;;;16.90;99.90;;;;;;5066233;28;20040;-75
2023/07/13 03:33:31;;;;;;;6.40;1.50;;;16.90;99.90;;;;;;5047440;28;20040;-76
2023/07/13 03:35:57;;;;;;;7.25;1.88;;;16.80;99.90;;;;;;5065643;28;20477;-76
2023/07/13 03:38:23;;;;;;;6.20;2.10;;;16.80;99.90;;;;;;5047177;28;20040;-75
2023/07/13 03:40:48;;;;;;;2.63;1.17;;;16.80;99.90;;;;;;5047307;28;20075;-76
2023/07/13 03:43:14;;;;;;;4.03;1.48;;;16.80;99.90;;;;;;5064331;28;20115;-75
2023/07/13 03:45:40;;;;;;;6.53;1.95;;;16.80;99.90;;;;;;5047276;28;20040;-75
2023/07/13 03:48:06;;;;;;;4.70;1.50;;;16.70;99.90;;;;;;5047169;28;20113;-76
2023/07/13 03:50:32;;;;;;;3.42;1.45;;;16.70;99.90;;;;;;5065077;28;20040;-76
2023/07/13 03:52:58;;;;;;;8.77;1.65;;;16.70;99.90;;;;;;5065332;28;20057;-75
2023/07/13 03:55:24;;;;;;;2.97;1.63;;;16.70;99.90;;;;;;5064505;28;20029;-75
2023/07/13 03:57:58;;;;;;;4.35;1.13;;;16.70;99.90;;;;;;5046070;28;20052;-75
2023/07/13 04:00:24;;;;;;;1.63;1.52;;;16.70;99.90;;;;;;5047132;28;20048;-75
2023/07/13 04:02:50;;;;;;;8.23;1.75;;;16.70;99.90;;;;;;5078711;28;20036;-75
2023/07/13 04:05:16;;;;;;;4.57;1.40;;;16.70;99.90;;;;;;5084991;28;20055;-76
2023/07/13 04:07:42;;;;;;;7.13;1.98;;;16.70;99.90;;;;;;5058189;28;20494;-75
2023/07/13 04:10:08;;;;;;;2.13;1.65;;;16.70;99.90;;;;;;5063846;28;20048;-76
2023/07/13 04:12:34;;;;;;;6.00;1.90;;;16.70;99.90;;;;;;5063993;28;20120;-75
2023/07/13 04:14:59;;;;;;;10.15;1.70;;;16.70;99.90;;;;;;5047447;28;20127;-75
2023/07/13 04:17:25;;;;;;;4.10;1.13;;;16.70;99.90;;;;;;5047052;28;20056;-75
2023/07/13 04:19:51;;;;;;;2.58;1.45;;;16.70;99.90;;;;;;5046811;28;20731;-75
2023/07/13 04:22:16;;;;;;;6.82;1.52;;;16.70;99.90;;;;;;5064390;28;20402;-75
2023/07/13 04:24:43;;;;;;;3.03;1.88;;;16.70;99.90;;;;;;5064715;28;20154;-75
2023/07/13 04:27:08;;;;;;;3.33;2.17;;;16.70;99.90;;;;;;5045987;28;20041;-75
2023/07/13 04:29:34;;;;;;;4.65;2.38;;;16.70;99.90;;;;;;5063847;28;20454;-75
2023/07/13 04:31:59;;;;;;;2.22;1.30;;;16.70;99.90;;;;;;5064105;28;20044;-76
2023/07/13 04:34:25;;;;;;;2.55;1.58;;;16.70;99.90;;;;;;5064132;28;20052;-75
2023/07/13 04:36:52;;;;;;;6.45;1.50;;;16.70;99.90;;;;;;5064153;28;20033;-75
2023/07/13 04:39:17;;;;;;;6.20;1.45;;;16.70;99.90;;;;;;5029562;28;20094;-75
2023/07/13 04:41:43;;;;;;;2.75;1.42;;;16.70;99.90;;;;;;5064035;28;20111;-75
2023/07/13 04:44:09;;;;;;;3.85;1.60;;;16.70;99.90;;;;;;5045269;28;20797;-75
2023/07/13 04:46:34;;;;;;;4.57;1.27;;;16.70;99.90;;;;;;5046387;28;20050;-76
2023/07/13 04:49:00;;;;;;;1.83;1.27;;;16.80;99.90;;;;;;5063627;28;20063;-76
2023/07/13 04:51:26;;;;;;;4.90;1.35;;;16.80;99.90;;;;;;5046547;28;20078;-75
2023/07/13 04:53:52;;;;;;;2.35;1.27;;;16.80;99.90;;;;;;5046110;28;20123;-75
2023/07/13 04:56:19;;;;;;;2.65;1.80;;;16.80;99.90;;;;;;5063739;28;20094;-75
2023/07/13 04:58:45;;;;;;;7.40;2.28;;;16.80;99.90;;;;;;5044655;28;20048;-74
2023/07/13 05:01:11;;;;;;;4.57;1.52;;;16.80;99.90;;;;;;5063017;28;20423;-77
2023/07/13 05:03:36;;;;;;;2.50;1.35;;;16.80;99.90;;;;;;5065349;28;20083;-77
2023/07/13 05:06:09;;;;;;;2.42;1.42;;;16.90;99.90;;;;;;5062399;28;20123;-77
2023/07/13 05:08:35;;;;;;;4.40;1.52;;;16.90;99.90;;;;;;5051658;28;20431;-77
2023/07/13 05:11:02;;;;;;;2.85;1.80;;;16.90;99.90;;;;;;5044588;28;20136;-77
2023/07/13 05:13:27;;;;;;;6.07;1.48;;;16.90;99.90;;;;;;5062597;28;20044;-77
2023/07/13 05:16:01;;;;;;;1.90;1.42;;;16.90;99.90;;;;;;5043452;28;20120;-77
2023/07/13 05:18:28;;;;;;;1.77;1.60;;;17.00;99.90;;;;;;5043425;28;20055;-77
2023/07/13 05:20:58;;;;;;;7.45;2.58;;;17.00;99.90;;;;;;5063106;28;20037;-77
2023/07/13 05:23:24;;;;;;;1.30;1.20;;;17.00;99.90;;;;;;5045873;28;20044;-75
2023/07/13 05:25:50;;;;;;;2.45;1.35;;;17.00;99.90;;;;;;5045498;28;20688;-77
2023/07/13 05:28:15;;;;;;;2.92;1.50;;;17.10;99.90;;;;;;5060854;28;20040;-77
2023/07/13 05:30:46;;;;;;;2.10;1.90;;;17.10;99.90;;;;;;5045237;28;20501;-77
2023/07/13 05:33:12;;;;;;;3.03;1.58;;;17.10;99.90;;;;;;5059454;28;20116;-77
2023/07/13 05:35:38;;;;;;;3.40;1.30;;;17.10;99.90;;;;;;5044048;28;20490;-77
2023/07/13 05:38:04;;;;;;;3.97;1.77;;;17.20;99.90;;;;;;5042719;28;20044;-77
2023/07/13 05:40:29;;;;;;;3.80;1.17;;;17.20;99.90;;;;;;5035882;28;20736;-80
2023/07/13 05:42:55;;;;;;;3.72;1.30;;;17.30;99.90;;;;;;5061864;28;20041;-78
2023/07/13 05:45:21;;;;;;;2.53;0.95;;;17.30;99.90;;;;;;5060905;28;20072;-77
2023/07/13 05:47:47;;;;;;;1.88;1.60;;;17.30;99.90;;;;;;5041380;28;20040;-78
2023/07/13 05:50:12;;;;;;;2.05;1.73;;;17.30;99.90;;;;;;5053203;28;20032;-78
2023/07/13 05:52:38;;;;;;;3.28;1.00;;;17.30;99.90;;;;;;5046645;28;20067;-76
2023/07/13 05:55:04;;;;;;;2.15;1.20;;;17.30;99.90;;;;;;5066836;28;20072;-77
2023/07/13 05:57:30;;;;;;;5.40;1.20;;;17.40;99.90;;;;;;5041305;28;20047;-76
2023/07/13 05:59:56;;;;;;;3.60;1.25;;;17.40;99.90;;;;;;5025654;28;20044;-75
2023/07/13 06:02:21;;;;;;;2.38;1.25;;;17.40;99.90;;;;;;5063146;28;20041;-79
2023/07/13 06:04:47;;;;;;;1.13;0.90;;;17.50;99.90;;;;;;5047757;28;20348;-75
2023/07/13 06:07:13;;;;;;;1.92;1.13;;;17.50;99.90;;;;;;5047562;28;20051;-75
2023/07/13 06:09:38;;;;;;;2.38;1.00;;;17.50;99.90;;;;;;5065773;28;20538;-76
2023/07/13 06:12:05;;;;;;;2.17;1.10;;;17.60;99.90;;;;;;5047808;28;20048;-75
2023/07/13 06:14:30;;;;;;;2.25;1.02;;;17.60;99.90;;;;;;5064202;28;20127;-76
2023/07/13 06:16:56;;;;;;;2.80;1.02;;;17.60;99.90;;;;;;5066544;28;20123;-76
2023/07/13 06:19:22;;;;;;;2.55;0.75;;;17.70;99.90;;;;;;5065182;28;20068;-76
2023/07/13 06:21:47;;;;;;;2.97;1.08;;;17.70;99.90;;;;;;5048010;28;20044;-76
2023/07/13 06:24:13;;;;;;;2.15;1.10;;;17.70;99.90;;;;;;5047546;28;20052;-76
2023/07/13 06:26:39;;;;;;;1.55;1.10;;;17.70;99.90;;;;;;5065688;28;20044;-77
2023/07/13 06:29:04;;;;;;;2.80;0.90;;;17.80;99.90;;;;;;5029456;28;20145;-76
2023/07/13 06:31:31;;;;;;;1.23;1.05;;;17.80;99.90;;;;;;5031186;28;20040;-76
2023/07/13 06:33:56;;;;;;;2.55;1.30;;;17.80;99.90;;;;;;5030891;28;20052;-77
2023/07/13 06:36:22;;;;;;;7.80;1.00;;;17.90;99.90;;;;;;5047002;28;20138;-76
2023/07/13 06:38:48;;;;;;;3.40;1.15;;;17.90;99.90;;;;;;5047371;28;20102;-76
2023/07/13 06:41:14;;;;;;;2.80;0.80;;;17.90;99.90;;;;;;5065267;28;20042;-76
2023/07/13 06:43:39;;;;;;;1.85;1.13;;;17.90;99.90;;;;;;5046227;28;20040;-76
2023/07/13 06:46:05;;;;;;;1.73;0.80;;;18.00;99.90;;;;;;5046962;28;20498;-77
2023/07/13 06:48:31;;;;;;;3.53;1.38;;;17.90;99.90;;;;;;5064976;28;20052;-76
2023/07/13 06:50:57;;;;;;;2.30;1.00;;;18.00;99.90;;;;;;5046838;28;20032;-76
2023/07/13 06:53:23;;;;;;;1.90;1.75;;;18.00;99.90;;;;;;5029711;28;20060;-77
2023/07/13 06:55:49;;;;;;;1.85;0.60;;;18.00;99.90;;;;;;5064421;28;20040;-76
2023/07/13 06:58:16;;;;;;;1.48;0.68;;;18.10;99.90;;;;;;5045470;28;20040;-77
2023/07/13 07:00:43;;;;;;;5.93;0.60;;;18.00;99.90;;;;;;5046669;28;20044;-76
2023/07/13 07:03:08;;;;;;;0.73;0.63;;;18.00;99.90;;;;;;5046113;28;20041;-76
2023/07/13 07:05:34;;;;;;;3.05;0.80;;;18.00;99.90;;;;;;5064839;28;20086;-77
2023/07/13 07:08:00;;;;;;;0.98;0.75;;;18.00;99.90;;;;;;5080377;28;20078;-77
2023/07/13 07:10:31;;;;;;;2.50;0.85;;;18.00;99.90;;;;;;5029389;28;20052;-76
2023/07/13 07:12:57;;;;;;;2.60;1.00;;;18.00;99.90;;;;;;5006726;28;20049;-77
2023/07/13 07:15:23;;;;;;;1.52;0.93;;;18.10;99.90;;;;;;5022768;28;20638;-76
2023/07/13 07:17:48;;;;;;;3.42;1.08;;;18.10;99.90;;;;;;5024742;28;20068;-76
2023/07/13 07:20:14;;;;;;;2.30;0.70;;;18.20;99.90;;;;;;5022991;28;20241;-76
2023/07/13 07:22:40;;;;;;;5.55;1.30;;;18.20;99.90;;;;;;5006442;28;20049;-76
2023/07/13 07:25:06;;;;;;;1.15;0.90;;;18.30;99.90;;;;;;5023117;28;20135;-76
2023/07/13 07:27:32;;;;;;;0.77;0.63;;;18.40;99.90;;;;;;5022141;28;20037;-76
2023/07/13 07:29:58;;;;;;;1.35;0.75;;;18.40;99.90;;;;;;5023516;28;20496;-76
2023/07/13 07:32:24;;;;;;;1.60;1.00;;;18.50;99.90;;;;;;5024486;28;20120;-76
2023/07/13 07:34:50;;;;;;;2.45;0.77;;;18.60;99.90;;;;;;5022784;28;20132;-76
2023/07/13 07:37:16;;;;;;;1.48;0.88;;;18.60;99.90;;;;;;5022525;28;20048;-77
2023/07/13 07:39:43;;;;;;;1.88;1.00;;;18.60;99.90;;;;;;5024240;28;20041;-76
2023/07/13 07:42:09;;;;;;;1.65;1.00;;;18.60;99.90;;;;;;5022567;28;20387;-77
2023/07/13 07:44:34;;;;;;;2.78;1.02;;;18.60;99.90;;;;;;5006352;28;20361;-76
2023/07/13 07:47:01;;;;;;;2.10;1.23;;;18.60;99.90;;;;;;5022771;28;20041;-76
2023/07/13 07:49:27;;;;;;;1.42;1.23;;;18.60;99.90;;;;;;5023186;28;20068;-76
2023/07/13 07:51:52;;;;;;;6.47;1.27;;;18.60;99.90;;;;;;5022893;28;20500;-76
2023/07/13 07:54:18;;;;;;;3.63;1.20;;;18.60;99.90;;;;;;5023570;28;20045;-76
2023/07/13 07:56:44;;;;;;;3.58;1.00;;;18.60;99.90;;;;;;5022278;28;20574;-76
2023/07/13 07:59:10;;;;;;;1.90;1.05;;;18.60;99.90;;;;;;5022582;28;20041;-77
2023/07/13 08:01:36;;;;;;;1.17;0.88;;;18.60;99.90;;;;;;5025901;28;20531;-76
2023/07/13 08:04:02;;;;;;;3.22;0.93;;;18.70;99.90;;;;;;5043365;28;20101;-76
2023/07/13 08:06:28;;;;;;;4.05;1.13;;;18.80;99.90;;;;;;5043668;28;20434;-76
2023/07/13 08:08:54;;;;;;;3.05;1.42;;;18.80;99.90;;;;;;5045788;28;20045;-76
2023/07/13 08:11:22;;;;;;;1.52;1.42;;;18.80;99.90;;;;;;5083433;28;20044;-76
2023/07/13 08:13:47;;;;;;;3.83;0.70;;;18.90;99.90;;;;;;5047644;28;20065;-77
2023/07/13 08:16:13;;;;;;;2.05;0.88;;;19.00;99.90;;;;;;5064880;28;20048;-76
2023/07/13 08:18:39;;;;;;;1.95;0.82;;;19.00;99.90;;;;;;5048381;28;20520;-77
2023/07/13 08:21:05;;;;;;;1.38;0.98;;;19.00;99.90;;;;;;5027078;28;20041;-77
2023/07/13 08:23:32;;;;;;;4.35;0.90;;;19.10;99.90;;;;;;5025806;28;20048;-76
2023/07/13 08:25:57;;;;;;;1.27;0.73;;;19.10;99.90;;;;;;5026005;28;20547;-76
2023/07/13 08:28:23;;;;;;;1.73;0.85;;;19.20;99.90;;;;;;5023962;28;20127;-76
2023/07/13 08:30:49;;;;;;;2.20;1.23;;;19.20;99.90;;;;;;5043476;28;20084;-77
2023/07/13 08:33:17;;;;;;;1.13;0.98;;;19.20;99.90;;;;;;5024490;28;20044;-77
2023/07/13 08:35:48;;;;;;;2.85;1.17;;;19.20;99.90;;;;;;5025376;28;20037;-77
2023/07/13 08:38:15;;;;;;;3.15;0.80;;;19.20;99.90;;;;;;5024948;28;20123;-77
2023/07/13 08:40:42;;;;;;;1.40;0.75;;;19.10;99.90;;;;;;5025203;28;20049;-77
2023/07/13 08:43:18;;;;;;;0.98;0.50;;;19.10;99.90;;;;;;5007126;28;20037;-77
2023/07/13 08:45:49;;;;;;;3.60;0.73;;;19.10;99.90;;;;;;5025113;28;20408;-77
2023/07/13 08:48:26;;;;;;;1.70;0.80;;;19.20;99.90;;;;;;5024591;28;20099;-77
2023/07/13 08:50:55;;;;;;;0.77;0.73;;;19.20;99.90;;;;;;5043081;28;20045;-77
2023/07/13 08:53:24;;;;;;;1.90;0.70;;;19.20;99.90;;;;;;5024847;28;20087;-77
2023/07/13 08:55:57;;;;;;;3.67;0.90;;;19.30;99.90;;;;;;5009064;28;20049;-77
2023/07/13 08:58:28;;;;;;;2.38;0.88;;;19.30;99.90;;;;;;5007222;28;20045;-77
2023/07/13 09:01:21;;;;;;;1.77;1.00;;;19.30;99.90;;;;;;5024909;28;20570;-77
2023/07/13 09:03:57;;;;;;;4.07;1.63;;;19.30;99.90;;;;;;5014717;28;20057;-76
2023/07/13 09:06:31;;;;;;;0.60;0.60;;;19.30;99.90;;;;;;5042080;28;20045;-77
2023/07/13 09:09:20;;;;;;;2.75;0.90;;;19.30;99.90;;;;;;5042856;28;20045;-77
2023/07/13 09:12:16;;;;;;;0.68;0.60;;;19.40;99.90;;;;;;5023942;28;20044;-77
2023/07/13 09:14:49;;;;;;;1.52;0.63;;;19.40;99.90;;;;;;5024217;28;20049;-77
2023/07/13 09:17:18;;;;;;;1.83;0.80;;;19.40;99.90;;;;;;5024901;28;20089;-77
2023/07/13 09:19:49;;;;;;;0.98;0.80;;;19.30;99.90;;;;;;5060040;28;20097;-83
2023/07/13 09:22:18;;;;;;;2.63;1.05;;;19.40;99.90;;;;;;5044537;28;20053;-76
2023/07/13 09:25:20;;;;;;;3.30;0.80;;;19.30;99.90;;;;;;5060313;28;20044;-80
2023/07/13 09:27:48;;;;;;;3.15;0.95;;;19.40;99.90;;;;;;5030475;28;20344;-76
2023/07/13 09:30:13;;;;;;;3.20;0.60;;;19.40;99.90;;;;;;5062323;28;20418;-75
2023/07/13 09:32:43;;;;;;;1.45;0.55;;;19.50;99.90;;;;;;5061022;28;20120;-76
2023/07/13 09:35:18;;;;;;;0.85;0.68;;;19.50;99.90;;;;;;5044012;28;20468;-76
2023/07/13 09:37:45;;;;;;;1.90;0.63;;;19.50;99.90;;;;;;5044632;28;20119;-76
2023/07/13 09:40:25;;;;;;;2.22;0.63;;;19.50;99.90;;;;;;5044240;28;20060;-76
2023/07/13 09:42:53;;;;;;;0.57;0.38;;;19.50;99.90;;;;;;5043112;28;20131;-76
2023/07/13 09:45:29;;;;;;;0.65;0.60;;;19.60;99.90;;;;;;5008646;28;20135;-76
2023/07/13 09:48:10;;;;;;;1.23;0.60;;;19.60;99.90;;;;;;5024857;28;20052;-76
2023/07/13 09:50:35;;;;;;;0.73;0.70;;;19.60;99.90;;;;;;5036855;28;20059;-76
2023/07/13 09:53:02;;;;;;;0.50;0.50;;;19.60;99.90;;;;;;5044771;28;20406;-75
2023/07/13 09:55:34;;;;;;;1.70;0.68;;;19.70;99.90;;;;;;5040969;28;20040;-76
2023/07/13 09:58:10;;;;;;;3.83;0.80;;;19.70;99.90;;;;;;5056512;28;20045;-77
2023/07/13 10:00:37;;;;;;;2.35;0.88;;;19.70;99.90;;;;;;5048552;28;20098;-75
2023/07/13 10:03:15;;;;;;;1.77;1.35;;;19.80;99.90;;;;;;5044086;28;20055;-76
2023/07/13 10:05:43;;;;;;;1.13;0.80;;;19.80;99.90;;;;;;5044893;28;20501;-75
2023/07/13 10:08:25;;;;;;;2.10;0.75;;;19.80;99.90;;;;;;5062311;28;20036;-75
2023/07/13 10:10:59;;;;;;;2.20;0.80;;;19.90;99.90;;;;;;5044064;28;20049;-75
2023/07/13 10:13:32;;;;;;;4.38;0.90;;;19.90;99.90;;;;;;5043363;28;20064;-76
2023/07/13 10:15:59;;;;;;;0.75;0.75;;;20.00;99.90;;;;;;5051558;28;20041;-75
2023/07/13 10:18:26;;;;;;;2.83;1.10;;;20.10;99.90;;;;;;5062396;28;20093;-75
2023/07/13 10:21:10;;;;;;;3.40;0.98;;;20.20;99.90;;;;;;5061413;28;20040;-75
2023/07/13 10:23:36;;;;;;;2.58;1.02;;;20.30;99.90;;;;;;5024807;28;20522;-75
2023/07/13 10:26:04;;;;;;;2.28;0.95;;;20.40;99.90;;;;;;5044440;28;20128;-76
2023/07/13 10:28:34;;;;;;;2.72;0.98;;;20.40;99.90;;;;;;5043072;28;20041;-75
2023/07/13 10:31:02;;;;;;;4.78;0.60;;;20.30;99.90;;;;;;5046282;28;20083;-77
2023/07/13 10:33:28;;;;;;;0.93;0.70;;;20.30;99.90;;;;;;5065826;28;20087;-76
2023/07/13 10:36:12;;;;;;;1.10;1.02;;;20.20;99.90;;;;;;5065984;28;20390;-76
2023/07/13 10:38:39;;;;;;;3.13;0.93;;;20.20;99.90;;;;;;5047814;28;20371;-76
2023/07/13 10:41:10;;;;;;;2.45;0.70;;;20.30;99.90;;;;;;5062887;28;20406;-74
2023/07/13 10:43:44;;;;;;;3.03;0.88;;;20.20;99.90;;;;;;5040355;28;20123;-75
2023/07/13 10:46:18;;;;;;;1.95;0.90;;;20.30;99.90;;;;;;5057197;28;20112;-76
2023/07/13 10:48:49;;;;;;;0.90;0.80;;;20.20;99.90;;;;;;5047226;28;20127;-77
2023/07/13 10:51:17;;;;;;;1.90;1.25;;;20.30;99.90;;;;;;5058521;28;20047;-75
2023/07/13 10:53:43;;;;;;;2.20;1.45;;;20.30;99.90;;;;;;5065442;28;20044;-75
2023/07/13 10:56:18;;;;;;;0.98;0.90;;;20.20;99.90;;;;;;5046322;28;20052;-74
2023/07/13 10:58:46;;;;;;;3.63;1.05;;;20.20;99.90;;;;;;5067492;28;20040;-77
2023/07/13 11:01:18;;;;;;;2.20;0.80;;;20.30;99.90;;;;;;5060731;28;20044;-76
2023/07/13 11:03:47;;;;;;;0.98;0.95;;;20.40;99.90;;;;;;5062169;28;20044;-76
2023/07/13 11:06:15;;;;;;;1.15;0.90;;;20.30;99.90;;;;;;5046501;28;20329;-76
2023/07/13 11:08:46;;;;;;;1.17;0.80;;;20.20;99.90;;;;;;5064264;28;20067;-76
2023/07/13 11:11:27;;;;;;;1.67;0.80;;;20.20;99.90;;;;;;5046469;28;20072;-76
2023/07/13 11:13:53;;;;;;;2.28;1.05;;;20.20;99.90;;;;;;5046781;28;20511;-75
2023/07/13 11:16:24;;;;;;;3.13;0.65;;;20.20;99.90;;;;;;5029327;28;20036;-75
2023/07/13 11:19:13;;;;;;;2.78;1.30;;;20.20;99.90;;;;;;5046898;28;20060;-76
2023/07/13 11:22:01;;;;;;;6.40;1.63;;;20.20;99.90;;;;;;5064513;28;20091;-75
2023/07/13 11:24:47;;;;;;;2.13;0.77;;;20.10;99.90;;;;;;5030122;28;20044;-75
2023/07/13 11:27:26;;;;;;;1.95;1.05;;;20.20;99.90;;;;;;5063448;28;20040;-75
2023/07/13 11:29:52;;;;;;;3.88;0.93;;;20.30;99.90;;;;;;5026090;28;20138;-75
2023/07/13 11:32:29;;;;;;;2.13;0.90;;;20.30;99.90;;;;;;5033880;28;20469;-75
2023/07/13 11:34:55;;;;;;;2.67;0.93;;;20.30;99.90;;;;;;5046851;28;20048;-75
2023/07/13 11:37:22;;;;;;;4.43;0.77;;;20.30;99.90;;;;;;5064099;28;20040;-75
2023/07/13 11:39:51;;;;;;;2.05;0.93;;;20.40;99.90;;;;;;5046347;28;20080;-75
2023/07/13 11:42:20;;;;;;;1.65;0.65;;;20.40;99.90;;;;;;5044185;28;20088;-75
2023/07/13 11:44:48;;;;;;;0.88;0.80;;;20.40;99.90;;;;;;5064039;28;20399;-74
2023/07/13 11:47:21;;;;;;;2.25;0.95;;;20.40;99.90;;;;;;5046319;28;20056;-75
2023/07/13 11:49:53;;;;;;;1.13;0.70;;;20.40;99.90;;;;;;5045632;28;20076;-76
2023/07/13 11:52:27;;;;;;;;;;;20.40;99.90;;;;;;5064287;28;20047;-75
2023/07/13 11:54:55;;;;;;;1.38;0.90;;;20.30;99.90;;;;;;5029451;28;19947;-76
2023/07/13 11:57:29;;;;;;;4.03;0.80;;;20.30;99.90;;;;;;5062819;28;20033;-76
2023/07/13 11:59:56;;;;;;;4.45;0.90;;;20.30;99.90;;;;;;5046193;28;20040;-76
2023/07/13 12:02:36;;;;;;;2.08;0.88;;;20.30;99.90;;;;;;5047317;28;20045;-75
2023/07/13 12:05:04;;;;;;;1.17;0.60;;;20.40;99.90;;;;;;5045699;28;20447;-75
2023/07/13 12:07:32;;;;;;;2.55;1.00;;;20.50;99.90;;;;;;5063575;28;20044;-76
2023/07/13 12:10:24;;;;;;;2.13;1.13;;;20.50;99.90;;;;;;5044272;28;20064;-75
2023/07/13 12:13:04;;;;;;;4.90;1.00;;;20.50;99.90;;;;;;5044319;28;20048;-76
2023/07/13 12:15:45;;;;;;;3.25;0.95;;;20.60;99.90;;;;;;5063919;28;20322;-77
2023/07/13 12:18:18;;;;;;;1.02;1.00;;;20.60;99.90;;;;;;5063629;28;20070;-75
2023/07/13 12:20:45;;;;;;;3.45;1.02;;;20.60;99.90;;;;;;5045563;28;20526;-75
2023/07/13 12:23:25;;;;;;;5.20;1.00;;;20.70;99.90;;;;;;5043122;28;20037;-75
2023/07/13 12:25:51;;;;;;;3.15;1.00;;;20.60;99.90;;;;;;5044613;28;20501;-75
2023/07/13 12:28:22;;;;;;;2.78;1.33;;;20.60;99.90;;;;;;5042475;28;20037;-76
2023/07/13 12:30:49;;;;;;;1.50;1.20;;;20.60;99.90;;;;;;5063347;28;20105;-75
2023/07/13 12:33:16;;;;;;;3.67;1.10;;;20.50;99.90;;;;;;5044755;28;20510;-75
2023/07/13 12:35:49;;;;;;;8.43;1.50;;;20.60;99.90;;;;;;5063073;28;20055;-75
2023/07/13 12:38:16;;;;;;;2.78;1.65;;;20.70;99.90;;;;;;5062477;28;20044;-75
2023/07/13 12:40:42;;;;;;;2.55;1.23;;;20.70;99.90;;;;;;5063072;28;20046;-75
2023/07/13 12:43:13;;;;;;;3.75;1.67;;;20.70;99.90;;;;;;5061932;28;20465;-75
2023/07/13 12:45:39;;;;;;;4.75;1.38;;;20.60;99.90;;;;;;5045255;28;20495;-75
2023/07/13 12:48:13;;;;;;;1.88;0.80;;;20.60;99.90;;;;;;5062737;28;20074;-75
2023/07/13 12:50:46;;;;;;;1.95;1.38;;;20.50;99.90;;;;;;5062746;28;20094;-75
2023/07/13 12:53:19;;;;;;;3.28;1.05;;;20.50;99.90;;;;;;5044256;28;20353;-75
2023/07/13 12:55:54;;;;;;;5.35;1.50;;;20.40;99.90;;;;;;5063002;28;20120;-75